Time;durP1;ratioP1;P1;durP2;ratioP2;P2;SDS_P1;SDS_P2;PMS_P1;PMS_P2;Temp;Humidity;BMP_temperature;BMP_pressure;BME280_temperature;BME280_humidity;BME280_pressure;Samples;Min_cycle;Max_cycle;Signal;HPM_P1;HPM_P2
2023/07/07 00:01:02;;;;;;;7.50;6.63;;;13.00;99.90;;;;;;4993803;28;20045;-37
2023/07/07 00:03:28;;;;;;;8.68;6.88;;;12.90;99.90;;;;;;4994097;28;20369;-36
2023/07/07 00:05:54;;;;;;;7.95;7.15;;;12.90;99.90;;;;;;4983274;28;20034;-42
2023/07/07 00:08:20;;;;;;;7.05;6.40;;;12.90;99.90;;;;;;4994465;28;20085;-36
2023/07/07 00:10:47;;;;;;;7.00;6.32;;;12.80;99.90;;;;;;4993664;28;20034;-36
2023/07/07 00:13:14;;;;;;;8.75;6.63;;;12.80;99.90;;;;;;4993961;28;20061;-42
2023/07/07 00:15:44;;;;;;;6.72;6.13;;;12.80;99.90;;;;;;4994189;28;20043;-38
2023/07/07 00:18:15;;;;;;;6.78;6.10;;;12.80;99.90;;;;;;4988240;28;20030;-35
2023/07/07 00:20:41;;;;;;;8.18;6.80;;;12.80;99.90;;;;;;4993599;28;20116;-36
2023/07/07 00:23:07;;;;;;;8.70;6.72;;;12.80;99.90;;;;;;4993648;28;20044;-39
2023/07/07 00:25:33;;;;;;;7.47;6.63;;;12.80;99.90;;;;;;4986063;28;20045;-38
2023/07/07 00:27:59;;;;;;;7.30;6.60;;;12.80;99.90;;;;;;4979905;28;20046;-40
2023/07/07 00:30:24;;;;;;;7.63;6.78;;;12.70;99.90;;;;;;4993521;28;20068;-38
2023/07/07 00:32:50;;;;;;;8.00;6.95;;;12.70;99.90;;;;;;4993685;28;20060;-37
2023/07/07 00:35:16;;;;;;;8.20;7.38;;;12.70;99.90;;;;;;4994968;28;20035;-39
2023/07/07 00:37:43;;;;;;;8.55;7.75;;;12.70;99.90;;;;;;4992062;28;20039;-39
2023/07/07 00:40:10;;;;;;;8.85;7.97;;;12.70;99.90;;;;;;4993485;28;20034;-38
2023/07/07 00:42:35;;;;;;;12.43;9.57;;;12.70;99.90;;;;;;4975454;28;20054;-40
2023/07/07 00:45:15;;;;;;;11.35;10.07;;;12.70;99.90;;;;;;4993306;28;20509;-40
2023/07/07 00:47:53;;;;;;;13.00;10.63;;;12.80;99.90;;;;;;4991337;28;20038;-35
2023/07/07 00:50:23;;;;;;;10.80;9.70;;;12.70;99.90;;;;;;4992368;28;20065;-38
2023/07/07 00:52:49;;;;;;;11.35;10.13;;;12.70;99.90;;;;;;4975070;28;20081;-38
2023/07/07 00:55:24;;;;;;;15.73;11.20;;;12.70;99.90;;;;;;5000152;28;20459;-38
2023/07/07 00:57:50;;;;;;;12.68;10.98;;;12.70;99.90;;;;;;4992483;28;20439;-39
2023/07/07 01:00:16;;;;;;;13.20;10.07;;;12.70;99.90;;;;;;4992657;28;20067;-36
2023/07/07 01:02:52;;;;;;;12.00;9.70;;;12.70;99.90;;;;;;4974863;28;20329;-39
2023/07/07 01:05:18;;;;;;;12.23;10.95;;;12.70;99.90;;;;;;4992036;28;20053;-38
2023/07/07 01:07:51;;;;;;;14.07;11.60;;;12.70;99.90;;;;;;4991734;28;20038;-39
2023/07/07 01:10:18;;;;;;;12.95;11.30;;;12.80;99.90;;;;;;4975073;28;20046;-36
2023/07/07 01:12:45;;;;;;;13.45;10.98;;;12.80;99.90;;;;;;4974364;28;20080;-41
2023/07/07 01:15:11;;;;;;;17.98;12.55;;;12.80;99.90;;;;;;4974891;28;20070;-38
2023/07/07 01:17:55;;;;;;;13.13;11.57;;;12.80;99.90;;;;;;4992573;28;20062;-35
2023/07/07 01:20:31;;;;;;;14.15;12.07;;;12.80;99.90;;;;;;4992714;28;20065;-40
2023/07/07 01:23:30;;;;;;;13.95;12.45;;;12.70;99.90;;;;;;4989881;28;20396;-35
2023/07/07 01:25:58;;;;;;;13.85;12.45;;;12.70;99.90;;;;;;4973344;28;20042;-36
2023/07/07 01:28:42;;;;;;;16.48;13.30;;;12.70;99.90;;;;;;4988867;28;20407;-36
2023/07/07 01:31:19;;;;;;;17.48;14.38;;;12.70;99.90;;;;;;4989539;28;20416;-37
2023/07/07 01:33:46;;;;;;;16.50;13.63;;;12.70;99.90;;;;;;4992225;28;20082;-41
2023/07/07 01:36:12;;;;;;;15.88;13.98;;;12.70;99.90;;;;;;4991995;28;20101;-35
2023/07/07 01:38:44;;;;;;;17.73;13.60;;;12.60;99.90;;;;;;4985363;28;20042;-41
2023/07/07 01:41:28;;;;;;;15.88;14.18;;;12.60;99.90;;;;;;4988406;28;20031;-39
2023/07/07 01:44:04;;;;;;;16.30;14.60;;;12.60;99.90;;;;;;4989106;28;20437;-41
2023/07/07 01:46:52;;;;;;;18.13;15.35;;;12.60;99.90;;;;;;4991966;28;20423;-39
2023/07/07 01:49:39;;;;;;;19.75;16.00;;;12.60;99.90;;;;;;4982850;28;20058;-42
2023/07/07 01:52:22;;;;;;;18.73;15.38;;;12.60;99.90;;;;;;4984624;28;20112;-40
2023/07/07 01:54:56;;;;;;;18.73;15.73;;;12.60;99.90;;;;;;4991863;28;20042;-40
2023/07/07 01:57:25;;;;;;;19.23;15.40;;;12.60;99.90;;;;;;4991131;28;20038;-37
2023/07/07 01:59:51;;;;;;;20.33;15.48;;;12.50;99.90;;;;;;4991830;28;20030;-36
2023/07/07 02:02:17;;;;;;;18.65;15.77;;;12.50;99.90;;;;;;4989759;28;20434;-36
2023/07/07 02:04:43;;;;;;;18.85;16.08;;;12.50;99.90;;;;;;4967093;28;20381;-40
2023/07/07 02:07:09;;;;;;;17.92;15.57;;;12.50;99.90;;;;;;4984006;28;20038;-39
2023/07/07 02:09:36;;;;;;;19.95;16.58;;;12.50;99.90;;;;;;4967217;28;20488;-40
2023/07/07 02:12:02;;;;;;;19.00;15.75;;;12.50;99.90;;;;;;4984269;28;20096;-39
2023/07/07 02:14:28;;;;;;;17.63;15.75;;;12.50;99.90;;;;;;4986607;28;20113;-43
2023/07/07 02:16:53;;;;;;;17.10;15.25;;;12.40;99.90;;;;;;4991095;28;20542;-38
2023/07/07 02:19:19;;;;;;;19.35;16.30;;;12.40;99.90;;;;;;4989134;28;20062;-38
2023/07/07 02:21:45;;;;;;;22.27;17.05;;;12.40;99.90;;;;;;4989726;28;20039;-39
2023/07/07 02:24:10;;;;;;;23.92;17.00;;;12.40;99.90;;;;;;4991382;28;20038;-39
2023/07/07 02:26:37;;;;;;;21.20;17.58;;;12.40;99.90;;;;;;4991219;28;20046;-42
2023/07/07 02:29:02;;;;;;;22.17;17.38;;;12.30;99.90;;;;;;4974143;28;20056;-41
2023/07/07 02:31:28;;;;;;;20.20;17.25;;;12.30;99.90;;;;;;4987457;28;20034;-47
2023/07/07 02:33:54;;;;;;;20.52;18.38;;;12.30;99.90;;;;;;4988187;28;20042;-43
2023/07/07 02:36:20;;;;;;;19.27;17.25;;;12.30;99.90;;;;;;4973635;28;20036;-39
2023/07/07 02:38:46;;;;;;;22.67;18.10;;;12.30;99.90;;;;;;4987380;28;20048;-37
2023/07/07 02:41:12;;;;;;;22.65;19.25;;;12.30;99.90;;;;;;4990193;28;20476;-36
2023/07/07 02:43:38;;;;;;;20.95;18.25;;;12.30;99.90;;;;;;4983830;28;20077;-39
2023/07/07 02:46:04;;;;;;;26.10;21.15;;;12.30;99.90;;;;;;4984340;28;20057;-39
2023/07/07 02:48:30;;;;;;;23.30;20.80;;;12.20;99.90;;;;;;4990542;28;20496;-40
2023/07/07 02:51:01;;;;;;;22.67;18.85;;;12.20;99.90;;;;;;4987436;28;20042;-35
2023/07/07 02:53:29;;;;;;;25.55;21.20;;;12.30;99.90;;;;;;4990928;28;20455;-37
2023/07/07 02:55:55;;;;;;;24.77;19.95;;;12.20;99.90;;;;;;4991117;28;20034;-36
2023/07/07 02:58:23;;;;;;;24.85;19.63;;;12.20;99.90;;;;;;4970481;28;20090;-39
2023/07/07 03:00:49;;;;;;;24.52;20.33;;;12.20;99.90;;;;;;4990445;28;20554;-35
2023/07/07 03:03:15;;;;;;;22.00;19.60;;;12.20;99.90;;;;;;4991165;28;20121;-35
2023/07/07 03:05:42;;;;;;;23.20;20.25;;;12.10;99.90;;;;;;4984410;28;20039;-37
2023/07/07 03:08:08;;;;;;;23.67;20.35;;;12.10;99.90;;;;;;4991071;28;20093;-38
2023/07/07 03:10:35;;;;;;;24.70;20.38;;;12.10;99.90;;;;;;4990675;28;20041;-35
2023/07/07 03:13:01;;;;;;;23.67;20.23;;;12.10;99.90;;;;;;4990717;28;20034;-38
2023/07/07 03:15:38;;;;;;;24.75;21.08;;;12.10;99.90;;;;;;4990783;28;20034;-36
2023/07/07 03:18:06;;;;;;;24.92;20.77;;;12.10;99.90;;;;;;4977668;28;20030;-36
2023/07/07 03:20:31;;;;;;;24.88;21.40;;;12.00;99.90;;;;;;4990613;28;20611;-37
2023/07/07 03:22:58;;;;;;;22.77;19.85;;;12.00;99.90;;;;;;4990718;28;20121;-35
2023/07/07 03:25:26;;;;;;;25.02;21.40;;;12.00;99.90;;;;;;4990739;28;20133;-38
2023/07/07 03:27:51;;;;;;;24.70;21.27;;;12.00;99.90;;;;;;4989992;28;20065;-36
2023/07/07 03:30:17;;;;;;;26.17;21.98;;;12.00;99.90;;;;;;4990867;28;20038;-38
2023/07/07 03:32:43;;;;;;;26.52;21.65;;;12.00;99.90;;;;;;4990466;28;20047;-40
2023/07/07 03:35:09;;;;;;;23.15;20.00;;;12.00;99.90;;;;;;4990818;28;20035;-38
2023/07/07 03:37:36;;;;;;;24.38;19.42;;;12.00;99.90;;;;;;4973591;28;20100;-37
2023/07/07 03:40:02;;;;;;;23.65;18.88;;;12.00;99.90;;;;;;4990654;28;20428;-36
2023/07/07 03:42:30;;;;;;;21.92;17.63;;;12.00;99.90;;;;;;4990528;28;20038;-38
2023/07/07 03:44:56;;;;;;;26.15;20.10;;;12.00;99.90;;;;;;4969605;28;20058;-37
2023/07/07 03:47:21;;;;;;;24.02;19.48;;;12.00;99.90;;;;;;4991074;28;20053;-40
2023/07/07 03:49:49;;;;;;;22.80;20.00;;;12.00;99.90;;;;;;4991244;28;20042;-38
2023/07/07 03:52:15;;;;;;;22.42;19.98;;;12.00;99.90;;;;;;4991048;28;20042;-37
2023/07/07 03:54:41;;;;;;;23.42;18.27;;;12.00;99.90;;;;;;4973802;28;20035;-36
2023/07/07 03:57:08;;;;;;;21.40;18.52;;;12.00;99.90;;;;;;4981899;28;20369;-38
2023/07/07 03:59:33;;;;;;;23.13;19.23;;;12.00;99.90;;;;;;4988206;28;20500;-36
2023/07/07 04:01:59;;;;;;;22.50;20.15;;;12.00;99.90;;;;;;4963950;28;20042;-38
2023/07/07 04:04:25;;;;;;;20.00;17.90;;;12.00;99.90;;;;;;4991451;28;20081;-37
2023/07/07 04:06:55;;;;;;;28.02;20.20;;;12.00;99.90;;;;;;4988453;28;20031;-36
2023/07/07 04:09:21;;;;;;;22.65;19.42;;;12.00;99.90;;;;;;4990998;28;20046;-38
2023/07/07 04:11:46;;;;;;;23.73;20.13;;;12.10;99.90;;;;;;4990866;28;20046;-34
2023/07/07 04:14:12;;;;;;;25.05;19.33;;;12.10;99.90;;;;;;4991249;28;20057;-37
2023/07/07 04:16:38;;;;;;;21.90;19.58;;;12.10;99.90;;;;;;4991256;28;20046;-39
2023/07/07 04:19:03;;;;;;;25.83;21.02;;;12.10;99.90;;;;;;5001442;28;20041;-40
2023/07/07 04:21:30;;;;;;;26.33;20.73;;;12.10;99.90;;;;;;4990892;28;20488;-38
2023/07/07 04:23:58;;;;;;;24.80;20.20;;;12.10;99.90;;;;;;4990764;28;20046;-37
2023/07/07 04:26:27;;;;;;;24.20;20.70;;;12.10;99.90;;;;;;4973550;28;20515;-38
2023/07/07 04:28:54;;;;;;;21.58;18.92;;;12.20;99.90;;;;;;4990450;28;20038;-39
2023/07/07 04:31:23;;;;;;;25.08;20.05;;;12.20;99.90;;;;;;4977400;28;20511;-39
2023/07/07 04:33:49;;;;;;;25.80;20.52;;;12.20;99.90;;;;;;4990907;28;20041;-37
2023/07/07 04:36:15;;;;;;;25.17;19.42;;;12.30;99.90;;;;;;4973139;28;20045;-40
2023/07/07 04:38:42;;;;;;;20.77;17.10;;;12.40;99.90;;;;;;4991552;28;20050;-35
2023/07/07 04:41:18;;;;;;;19.63;17.42;;;12.40;99.90;;;;;;4994681;28;20048;-38
2023/07/07 04:43:48;;;;;;;22.08;18.13;;;12.40;99.90;;;;;;4992541;28;20110;-36
2023/07/07 04:46:19;;;;;;;22.35;19.83;;;12.50;99.90;;;;;;4957618;28;20078;-36
2023/07/07 04:48:45;;;;;;;20.50;16.80;;;12.50;99.90;;;;;;4993564;28;20046;-36
2023/07/07 04:51:12;;;;;;;23.48;19.52;;;12.60;99.90;;;;;;4992164;28;20064;-37
2023/07/07 04:53:40;;;;;;;21.63;17.30;;;12.60;99.90;;;;;;4993341;28;20038;-37
2023/07/07 04:56:09;;;;;;;24.35;19.63;;;12.60;99.90;;;;;;4993445;28;20038;-37
2023/07/07 04:58:36;;;;;;;21.38;17.95;;;12.70;99.90;;;;;;4975497;28;20504;-37
2023/07/07 05:01:06;;;;;;;22.98;17.85;;;12.70;99.90;;;;;;4975605;28;20034;-35
2023/07/07 05:03:33;;;;;;;19.05;16.52;;;12.80;99.90;;;;;;4988960;28;20119;-35
2023/07/07 05:05:58;;;;;;;21.17;18.90;;;12.80;99.90;;;;;;4975846;28;20081;-38
2023/07/07 05:08:24;;;;;;;20.27;17.85;;;12.90;99.90;;;;;;4993305;28;20084;-40
2023/07/07 05:10:50;;;;;;;22.35;17.88;;;13.00;99.90;;;;;;4993037;28;20042;-36
2023/07/07 05:13:16;;;;;;;23.90;18.85;;;13.00;99.90;;;;;;4993277;28;20500;-37
2023/07/07 05:15:41;;;;;;;22.80;18.00;;;13.10;99.90;;;;;;4975781;28;20092;-38
2023/07/07 05:18:07;;;;;;;20.20;17.25;;;13.20;99.90;;;;;;4992602;28;20035;-36
2023/07/07 05:20:33;;;;;;;24.67;18.85;;;13.30;99.90;;;;;;4992827;28;20101;-35
2023/07/07 05:22:59;;;;;;;22.40;18.83;;;13.30;99.90;;;;;;4993132;28;20031;-39
2023/07/07 05:25:25;;;;;;;20.17;17.90;;;13.40;99.90;;;;;;4993032;28;20038;-36
2023/07/07 05:27:50;;;;;;;19.85;17.58;;;13.50;99.90;;;;;;4992249;28;20069;-34
2023/07/07 05:30:16;;;;;;;21.80;18.90;;;13.60;99.90;;;;;;4984796;28;20053;-38
2023/07/07 05:32:42;;;;;;;24.67;20.33;;;13.70;99.90;;;;;;4979727;28;20129;-36
2023/07/07 05:35:08;;;;;;;20.65;18.30;;;13.90;99.90;;;;;;4980670;28;20515;-36
2023/07/07 05:37:34;;;;;;;21.58;18.70;;;13.90;99.90;;;;;;4976242;28;20512;-36
2023/07/07 05:39:59;;;;;;;22.45;18.90;;;14.10;99.90;;;;;;4992367;28;20030;-35
2023/07/07 05:42:26;;;;;;;23.42;18.10;;;14.30;99.90;;;;;;4974505;28;20608;-37
2023/07/07 05:44:52;;;;;;;21.42;17.10;;;14.50;99.90;;;;;;4970115;28;20043;-37
2023/07/07 05:47:18;;;;;;;20.42;18.08;;;14.70;99.90;;;;;;4983550;28;20041;-38
2023/07/07 05:49:43;;;;;;;19.63;17.52;;;14.80;99.90;;;;;;4984998;28;20564;-36
2023/07/07 05:52:14;;;;;;;19.02;17.02;;;14.90;99.90;;;;;;4983124;28;20038;-36
2023/07/07 05:54:39;;;;;;;22.65;16.55;;;15.10;99.90;;;;;;4990093;28;20046;-34
2023/07/07 05:57:06;;;;;;;20.83;15.88;;;15.30;99.90;;;;;;4982941;28;20034;-35
2023/07/07 05:59:31;;;;;;;20.73;16.27;;;15.40;99.90;;;;;;4989839;28;20038;-35
2023/07/07 06:01:57;;;;;;;17.63;15.73;;;15.60;99.90;;;;;;4991989;28;20034;-37
2023/07/07 06:04:22;;;;;;;20.52;15.80;;;15.70;99.90;;;;;;4992480;28;20045;-38
2023/07/07 06:06:48;;;;;;;19.08;15.20;;;15.90;99.90;;;;;;4974758;28;20121;-36
2023/07/07 06:09:14;;;;;;;19.52;15.27;;;16.00;99.90;;;;;;4992389;28;20109;-39
2023/07/07 06:11:40;;;;;;;16.00;14.38;;;16.20;99.90;;;;;;4971533;28;20045;-35
2023/07/07 06:14:05;;;;;;;16.45;13.77;;;16.40;99.90;;;;;;4992365;28;20046;-40
2023/07/07 06:16:31;;;;;;;18.50;14.75;;;16.50;99.90;;;;;;4991409;28;20344;-38
2023/07/07 06:18:57;;;;;;;18.48;15.07;;;16.60;99.90;;;;;;4990094;28;20030;-39
2023/07/07 06:21:22;;;;;;;15.07;13.48;;;16.70;99.90;;;;;;4970184;28;20042;-40
2023/07/07 06:23:48;;;;;;;16.92;14.02;;;16.80;99.90;;;;;;4974136;28;20049;-34
2023/07/07 06:26:14;;;;;;;15.60;14.00;;;17.00;99.90;;;;;;4991917;28;20069;-37
2023/07/07 06:28:39;;;;;;;16.27;13.25;;;17.10;99.90;;;;;;4991603;28;20369;-37
2023/07/07 06:31:05;;;;;;;14.93;12.82;;;17.30;99.90;;;;;;4970264;28;20066;-37
2023/07/07 06:33:31;;;;;;;14.80;13.25;;;17.40;99.90;;;;;;4967739;28;20046;-38
2023/07/07 06:35:56;;;;;;;14.23;12.45;;;17.50;99.90;;;;;;4991507;28;20030;-37
2023/07/07 06:38:22;;;;;;;12.65;10.90;;;17.70;99.90;;;;;;4991567;28;20038;-41
2023/07/07 06:40:48;;;;;;;15.27;10.77;;;17.80;99.90;;;;;;4991521;28;20181;-37
2023/07/07 06:43:18;;;;;;;12.77;10.68;;;17.90;99.90;;;;;;4991283;28;20380;-40
2023/07/07 06:45:45;;;;;;;12.98;10.55;;;18.10;99.90;;;;;;4985036;28;20133;-37
2023/07/07 06:48:11;;;;;;;10.35;9.15;;;18.20;99.90;;;;;;4989625;28;20042;-38
2023/07/07 06:50:40;;;;;;;10.18;8.50;;;18.30;99.90;;;;;;4991631;28;20507;-38
2023/07/07 06:53:06;;;;;;;11.63;9.27;;;18.50;99.90;;;;;;4969100;28;20397;-39
2023/07/07 06:55:32;;;;;;;10.05;8.88;;;18.60;99.90;;;;;;5000711;28;20053;-39
2023/07/07 06:57:57;;;;;;;8.85;7.90;;;18.80;99.90;;;;;;4994355;28;20127;-38
2023/07/07 07:00:23;;;;;;;12.77;8.18;;;18.90;99.90;;;;;;4990704;28;20122;-37
2023/07/07 07:02:49;;;;;;;9.50;8.32;;;19.10;99.90;;;;;;4990951;28;20396;-35
2023/07/07 07:05:15;;;;;;;11.70;8.02;;;19.20;99.90;;;;;;4990905;28;20038;-36
2023/07/07 07:07:41;;;;;;;9.85;7.78;;;19.30;99.90;;;;;;4991052;28;20054;-40
2023/07/07 07:10:07;;;;;;;9.25;7.47;;;19.50;99.90;;;;;;4973947;28;20081;-38
2023/07/07 07:12:33;;;;;;;9.88;7.57;;;19.60;99.90;;;;;;4990367;28;20088;-38
2023/07/07 07:14:59;;;;;;;7.30;6.15;;;19.70;99.90;;;;;;4991057;28;20081;-39
2023/07/07 07:17:25;;;;;;;7.03;6.15;;;19.80;99.90;;;;;;4990840;28;20038;-37
2023/07/07 07:19:51;;;;;;;8.57;5.85;;;19.90;99.90;;;;;;4991136;28;20455;-36
2023/07/07 07:22:18;;;;;;;8.43;6.07;;;20.10;99.90;;;;;;4990581;28;20042;-39
2023/07/07 07:24:44;;;;;;;7.82;5.97;;;20.30;99.90;;;;;;4972620;28;20089;-37
2023/07/07 07:27:10;;;;;;;7.55;5.10;;;20.40;99.90;;;;;;4990810;28;20062;-36
2023/07/07 07:29:36;;;;;;;4.95;4.45;;;20.60;99.90;;;;;;4990404;28;20046;-36
2023/07/07 07:32:02;;;;;;;9.60;5.70;;;20.70;99.90;;;;;;4973611;28;20096;-37
2023/07/07 07:34:30;;;;;;;7.47;4.70;;;20.90;99.90;;;;;;4982892;28;20387;-38
2023/07/07 07:36:57;;;;;;;6.60;4.80;;;21.00;99.90;;;;;;4983868;28;20103;-36
2023/07/07 07:39:23;;;;;;;6.50;4.57;;;21.10;99.90;;;;;;4988864;28;20053;-37
2023/07/07 07:41:51;;;;;;;7.80;4.80;;;21.20;99.90;;;;;;4972695;28;20026;-39
2023/07/07 07:44:19;;;;;;;8.68;4.90;;;21.40;99.90;;;;;;4973917;28;20042;-36
2023/07/07 07:46:46;;;;;;;9.48;4.72;;;21.50;99.90;;;;;;4990999;28;20053;-36
2023/07/07 07:49:13;;;;;;;6.53;4.20;;;21.70;99.90;;;;;;4993835;28;20066;-38
2023/07/07 07:51:39;;;;;;;6.13;4.00;;;21.80;99.90;;;;;;4990539;28;20554;-36
2023/07/07 07:54:10;;;;;;;6.55;4.63;;;22.00;99.90;;;;;;4991087;28;20042;-37
2023/07/07 07:56:36;;;;;;;21.08;6.72;;;22.20;99.90;;;;;;4973528;28;20043;-39
2023/07/07 07:59:03;;;;;;;20.98;6.53;;;22.30;99.90;;;;;;4991388;28;20284;-40
2023/07/07 08:01:28;;;;;;;6.82;3.85;;;22.40;99.90;;;;;;4991018;28;20042;-38
2023/07/07 08:03:55;;;;;;;7.45;4.35;;;22.50;99.90;;;;;;4990313;28;20050;-40
2023/07/07 08:06:21;;;;;;;19.55;5.22;;;22.60;99.90;;;;;;4973998;28;20159;-38
2023/07/07 08:08:46;;;;;;;7.20;3.70;;;22.80;99.90;;;;;;4985402;28;20042;-38
2023/07/07 08:11:29;;;;;;;11.88;4.63;;;22.90;99.90;;;;;;4990982;28;20101;-39
2023/07/07 08:13:55;;;;;;;12.73;4.78;;;23.10;99.90;;;;;;4971453;28;20436;-35
2023/07/07 08:16:21;;;;;;;8.75;4.45;;;23.30;99.90;;;;;;4977475;28;20045;-37
2023/07/07 08:18:47;;;;;;;5.20;3.42;;;23.40;99.90;;;;;;4994452;28;20054;-40
2023/07/07 08:21:12;;;;;;;5.75;3.58;;;23.60;99.90;;;;;;4994540;28;20034;-38
2023/07/07 08:23:38;;;;;;;5.25;3.20;;;23.70;99.90;;;;;;4994062;28;20042;-38
2023/07/07 08:26:04;;;;;;;4.45;2.67;;;23.80;98.50;;;;;;4992941;28;20108;-37
2023/07/07 08:28:29;;;;;;;7.47;3.20;;;23.80;97.90;;;;;;4973306;28;20042;-40
2023/07/07 08:30:55;;;;;;;4.13;3.15;;;24.00;98.00;;;;;;4979985;28;20035;-37
2023/07/07 08:33:21;;;;;;;4.13;2.83;;;24.10;95.80;;;;;;4989904;28;20042;-36
2023/07/07 08:35:46;;;;;;;3.58;2.88;;;24.20;94.10;;;;;;4994105;28;20513;-37
2023/07/07 08:38:12;;;;;;;3.22;2.50;;;24.30;92.50;;;;;;4977009;28;20027;-38
2023/07/07 08:40:51;;;;;;;3.40;2.42;;;24.50;92.20;;;;;;4988784;28;20082;-36
2023/07/07 08:43:18;;;;;;;4.05;2.65;;;24.60;89.90;;;;;;4988655;28;20132;-39
2023/07/07 08:46:07;;;;;;;3.65;2.50;;;24.70;89.30;;;;;;4988364;28;20086;-37
2023/07/07 08:48:43;;;;;;;3.35;2.38;;;24.80;84.30;;;;;;4976077;28;20104;-39
2023/07/07 08:51:17;;;;;;;6.15;2.30;;;24.90;77.50;;;;;;4992656;28;20053;-41
2023/07/07 08:53:58;;;;;;;3.50;2.65;;;25.00;74.60;;;;;;4992843;28;20548;-41
2023/07/07 08:56:47;;;;;;;3.35;2.45;;;24.90;74.30;;;;;;4993306;28;20049;-41
2023/07/07 08:59:12;;;;;;;3.47;2.45;;;25.10;74.10;;;;;;4985878;28;20042;-41
2023/07/07 09:01:57;;;;;;;4.10;2.45;;;25.20;73.10;;;;;;4990443;28;20046;-41
2023/07/07 09:04:46;;;;;;;4.00;2.55;;;25.30;71.10;;;;;;4989282;28;20058;-42
2023/07/07 09:07:27;;;;;;;6.50;2.58;;;25.40;69.30;;;;;;4970601;28;20527;-41
2023/07/07 09:09:58;;;;;;;4.15;2.67;;;25.60;68.50;;;;;;4991895;28;20039;-41
2023/07/07 09:12:27;;;;;;;4.38;2.53;;;25.80;69.80;;;;;;4988516;28;20047;-39
2023/07/07 09:14:57;;;;;;;5.13;2.63;;;26.00;67.00;;;;;;4990836;28;20100;-41
2023/07/07 09:17:33;;;;;;;6.45;3.38;;;26.00;65.80;;;;;;4959025;28;20052;-40
2023/07/07 09:20:05;;;;;;;4.30;2.58;;;26.20;66.90;;;;;;4966131;28;20038;-42
2023/07/07 09:22:51;;;;;;;4.78;2.55;;;26.30;64.80;;;;;;4970725;28;20061;-39
2023/07/07 09:25:30;;;;;;;3.65;2.20;;;26.20;63.70;;;;;;4989152;28;20042;-40
2023/07/07 09:28:02;;;;;;;4.72;2.47;;;26.30;64.50;;;;;;4986068;28;20038;-41
2023/07/07 09:30:39;;;;;;;4.95;2.67;;;26.40;63.80;;;;;;4975727;28;20097;-38
2023/07/07 09:33:05;;;;;;;5.55;2.67;;;26.70;63.20;;;;;;4973517;28;20377;-42
2023/07/07 09:35:37;;;;;;;3.38;2.28;;;27.00;66.70;;;;;;4993022;28;20038;-42
2023/07/07 09:38:12;;;;;;;3.05;2.30;;;27.30;63.70;;;;;;4988685;28;20034;-41
2023/07/07 09:41:03;;;;;;;3.97;2.60;;;27.40;64.30;;;;;;4992841;28;20054;-41
2023/07/07 09:43:42;;;;;;;3.80;2.38;;;27.70;62.80;;;;;;4991076;28;20042;-42
2023/07/07 09:46:27;;;;;;;5.03;2.50;;;27.60;63.00;;;;;;4993027;28;20506;-41
2023/07/07 09:49:09;;;;;;;3.78;2.55;;;27.60;60.70;;;;;;4989835;28;20302;-42
2023/07/07 09:51:58;;;;;;;3.90;2.95;;;27.70;59.80;;;;;;4975258;28;20514;-42
2023/07/07 09:54:24;;;;;;;5.00;2.60;;;27.90;58.40;;;;;;4977667;28;20487;-41
2023/07/07 09:56:56;;;;;;;4.10;2.67;;;27.80;59.20;;;;;;4988184;28;20072;-38
2023/07/07 09:59:43;;;;;;;6.25;2.47;;;27.70;57.80;;;;;;4988836;28;20117;-42
2023/07/07 10:02:16;;;;;;;2.47;2.10;;;27.80;55.80;;;;;;4986284;28;20105;-42
2023/07/07 10:04:53;;;;;;;3.50;2.60;;;27.80;55.40;;;;;;4972093;28;20389;-42
2023/07/07 10:07:19;;;;;;;3.38;2.63;;;27.80;55.80;;;;;;4986350;28;20118;-42
2023/07/07 10:09:45;;;;;;;3.83;2.25;;;27.90;57.20;;;;;;4984316;28;20038;-43
2023/07/07 10:12:15;;;;;;;3.97;2.42;;;28.10;58.20;;;;;;4976229;28;20413;-35
2023/07/07 10:14:45;;;;;;;5.32;2.40;;;28.30;57.00;;;;;;5018487;23;20026;-83
2023/07/07 10:17:14;;;;;;;5.95;2.80;;;28.50;57.70;;;;;;5020879;28;20017;-83
2023/07/07 10:19:53;;;;;;;6.50;2.95;;;28.80;57.90;;;;;;5019792;28;20101;-84
2023/07/07 10:22:20;;;;;;;3.33;2.30;;;29.00;54.50;;;;;;5030816;28;20535;-84
2023/07/07 10:24:49;;;;;;;4.07;2.38;;;29.20;57.20;;;;;;5000493;28;20052;-84
2023/07/07 10:27:24;;;;;;;4.07;2.40;;;29.50;57.70;;;;;;5000310;28;20065;-85
2023/07/07 10:29:50;;;;;;;4.10;2.65;;;29.60;56.60;;;;;;5003413;28;20041;-85
2023/07/07 10:32:20;;;;;;;15.95;4.57;;;29.50;55.80;;;;;;5000291;28;20385;-84
2023/07/07 10:34:52;;;;;;;5.53;2.38;;;29.40;54.20;;;;;;4983251;28;20045;-84
2023/07/07 10:37:33;;;;;;;5.50;2.85;;;29.50;55.90;;;;;;4999019;28;20046;-85
2023/07/07 10:40:11;;;;;;;4.43;2.42;;;29.60;54.70;;;;;;4998057;28;20084;-86
2023/07/07 10:42:37;;;;;;;8.68;2.67;;;29.50;53.90;;;;;;5001053;28;20044;-86
2023/07/07 10:45:07;;;;;;;3.03;2.40;;;29.50;54.00;;;;;;5004334;28;20069;-82
2023/07/07 10:47:35;;;;;;;2.50;2.30;;;29.60;52.60;;;;;;5000994;28;20060;-86
2023/07/07 10:50:02;;;;;;;3.25;2.38;;;29.60;51.20;;;;;;4991745;28;20038;-85
2023/07/07 10:53:09;;;;;;;3.83;2.40;;;29.50;50.20;;;;;;5018736;28;20045;-86
2023/07/07 10:55:54;;;;;;;3.53;2.50;;;29.60;48.90;;;;;;4998887;28;20045;-86
2023/07/07 10:58:47;;;;;;;3.38;2.40;;;29.70;49.50;;;;;;5019995;28;20381;-86
2023/07/07 11:01:33;;;;;;;3.20;2.35;;;30.00;50.90;;;;;;5009938;28;20034;-86
2023/07/07 11:04:11;;;;;;;3.15;2.17;;;30.00;48.20;;;;;;4999842;28;20092;-85
2023/07/07 11:07:02;;;;;;;2.40;2.10;;;30.10;50.80;;;;;;4998551;28;20049;-84
2023/07/07 11:09:47;;;;;;;2.97;2.00;;;30.40;50.80;;;;;;4998924;28;20030;-85
2023/07/07 11:12:51;;;;;;;2.97;2.45;;;30.70;48.60;;;;;;4993709;28;20049;-84
2023/07/07 11:15:28;;;;;;;3.42;2.50;;;30.50;46.80;;;;;;4942998;28;20060;-85
2023/07/07 11:18:12;;;;;;;3.25;2.40;;;30.50;46.60;;;;;;4999701;28;20048;-84
2023/07/07 11:20:49;;;;;;;2.53;2.10;;;30.70;46.70;;;;;;4996346;28;20073;-84
2023/07/07 11:23:34;;;;;;;2.30;1.90;;;30.70;48.10;;;;;;4979987;28;20041;-85
2023/07/07 11:26:13;;;;;;;4.32;2.35;;;30.70;45.40;;;;;;4999891;28;20099;-83
2023/07/07 11:28:53;;;;;;;3.47;2.45;;;30.80;45.60;;;;;;4993104;28;20046;-84
2023/07/07 11:31:38;;;;;;;4.18;2.80;;;31.00;44.80;;;;;;4990743;28;20072;-84
2023/07/07 11:34:37;;;;;;;4.13;2.42;;;31.10;44.40;;;;;;4982911;28;20064;-83
2023/07/07 11:37:12;;;;;;;3.30;2.25;;;30.90;42.90;;;;;;4982907;28;20088;-87
2023/07/07 11:39:49;;;;;;;2.65;1.95;;;31.30;46.70;;;;;;4984901;28;20202;-87
2023/07/07 11:43:01;;;;;;;;;;;;;;;;;;;;;
2023/07/07 11:46:01;;;;;;;3.40;2.42;;;31.50;44.40;;;;;;4999514;28;20116;-87
2023/07/07 11:49:00;;;;;;;3.35;2.13;;;31.00;42.30;;;;;;5019402;28;20037;-84
2023/07/07 11:51:50;;;;;;;2.50;2.15;;;31.10;46.40;;;;;;5005852;28;20045;-87
2023/07/07 11:54:44;;;;;;;2.55;2.28;;;31.30;43.30;;;;;;4999625;28;20038;-86
2023/07/07 11:57:48;;;;;;;3.83;2.22;;;31.50;43.20;;;;;;4997412;28;20041;-87
2023/07/07 12:00:45;;;;;;;2.92;2.10;;;31.60;44.90;;;;;;4992336;28;20381;-87
2023/07/07 12:03:36;;;;;;;3.60;2.17;;;31.70;42.30;;;;;;5004251;28;20034;-85
2023/07/07 12:06:23;;;;;;;2.70;2.50;;;31.90;43.80;;;;;;4998441;28;20038;-87
2023/07/07 12:09:16;;;;;;;2.30;2.15;;;32.10;43.10;;;;;;5009476;28;20113;-86
2023/07/07 12:11:57;;;;;;;2.63;2.42;;;32.40;43.60;;;;;;5006103;28;20042;-88
2023/07/07 12:14:59;;;;;;;2.38;2.03;;;32.70;42.70;;;;;;4989154;28;20045;-86
2023/07/07 12:17:39;;;;;;;2.40;2.20;;;32.60;41.40;;;;;;5008762;28;20069;-86
2023/07/07 12:20:24;;;;;;;2.10;1.90;;;33.00;42.40;;;;;;5016048;28;20500;-86
2023/07/07 12:22:50;;;;;;;2.70;2.33;;;33.10;42.80;;;;;;5001881;28;20416;-88
2023/07/07 12:25:26;;;;;;;3.15;1.98;;;33.20;42.70;;;;;;5002048;28;20048;-89
2023/07/07 12:27:54;;;;;;;2.42;2.22;;;33.30;42.30;;;;;;4990026;28;20050;-90
2023/07/07 12:30:37;;;;;;;2.50;2.30;;;33.40;43.00;;;;;;4984248;28;20491;-87
2023/07/07 12:33:05;;;;;;;2.45;2.25;;;33.90;42.40;;;;;;5011163;28;20037;-84
2023/07/07 12:35:51;;;;;;;3.15;2.25;;;34.00;41.60;;;;;;4996619;28;20046;-89
2023/07/07 12:38:27;;;;;;;4.25;2.50;;;34.00;39.10;;;;;;4993141;28;20038;-91
2023/07/07 12:41:06;;;;;;;2.35;2.13;;;33.60;38.70;;;;;;5017516;28;20077;-90
2023/07/07 12:43:37;;;;;;;2.35;2.15;;;33.50;39.30;;;;;;4993337;28;20057;-87
2023/07/07 12:46:29;;;;;;;3.30;2.58;;;33.50;39.90;;;;;;5010618;28;20050;-89
2023/07/07 12:49:03;;;;;;;2.72;2.20;;;33.80;39.70;;;;;;4990285;28;20068;-89
2023/07/07 12:51:32;;;;;;;3.00;2.40;;;33.80;40.50;;;;;;4979594;28;20080;-89
2023/07/07 12:54:01;;;;;;;3.75;2.33;;;33.80;39.10;;;;;;4993653;28;20053;-90
2023/07/07 12:56:31;;;;;;;2.50;1.98;;;33.60;39.40;;;;;;5013535;28;20042;-89
2023/07/07 12:58:59;;;;;;;2.80;2.10;;;33.60;42.10;;;;;;4983207;28;20042;-89